sensor_id;sensor_type;location;lat;lon;timestamp;temperature;humidity
27823;DHT22;29019;47.630;8.262;2023-02-28T00:01:40;18.30;28.90
27823;DHT22;29019;47.630;8.262;2023-02-28T00:05:40;18.20;28.90
27823;DHT22;29019;47.630;8.262;2023-02-28T00:09:41;18.20;29.00
27823;DHT22;29019;47.630;8.262;2023-02-28T00:13:43;18.20;28.90
27823;DHT22;29019;47.630;8.262;2023-02-28T00:17:46;18.10;28.90
27823;DHT22;29019;47.630;8.262;2023-02-28T00:21:46;18.20;28.90
27823;DHT22;29019;47.630;8.262;2023-02-28T00:25:47;18.10;29.00
27823;DHT22;29019;47.630;8.262;2023-02-28T00:29:47;18.10;29.00
27823;DHT22;29019;47.630;8.262;2023-02-28T00:33:48;18.10;29.00
27823;DHT22;29019;47.630;8.262;2023-02-28T00:37:48;18.00;29.00
27823;DHT22;29019;47.630;8.262;2023-02-28T00:41:49;18.00;29.00
27823;DHT22;29019;47.630;8.262;2023-02-28T00:45:50;18.00;29.00
27823;DHT22;29019;47.630;8.262;2023-02-28T00:49:50;18.00;29.00
27823;DHT22;29019;47.630;8.262;2023-02-28T00:53:51;18.00;29.00
27823;DHT22;29019;47.630;8.262;2023-02-28T00:57:51;18.00;29.00
27823;DHT22;29019;47.630;8.262;2023-02-28T01:01:52;17.90;29.00
27823;DHT22;29019;47.630;8.262;2023-02-28T01:05:52;17.90;29.10
27823;DHT22;29019;47.630;8.262;2023-02-28T01:09:55;17.90;29.10
27823;DHT22;29019;47.630;8.262;2023-02-28T01:13:56;17.90;29.10
27823;DHT22;29019;47.630;8.262;2023-02-28T01:17:57;17.90;29.10
27823;DHT22;29019;47.630;8.262;2023-02-28T01:22:00;17.80;29.00
27823;DHT22;29019;47.630;8.262;2023-02-28T01:26:07;17.80;29.10
27823;DHT22;29019;47.630;8.262;2023-02-28T01:30:08;17.80;29.10
27823;DHT22;29019;47.630;8.262;2023-02-28T01:34:09;17.80;29.10
27823;DHT22;29019;47.630;8.262;2023-02-28T01:38:09;17.80;29.10
27823;DHT22;29019;47.630;8.262;2023-02-28T01:42:10;17.80;29.10
27823;DHT22;29019;47.630;8.262;2023-02-28T01:46:10;17.80;29.10
27823;DHT22;29019;47.630;8.262;2023-02-28T01:50:13;17.70;29.10
27823;DHT22;29019;47.630;8.262;2023-02-28T01:54:15;17.70;29.10
27823;DHT22;29019;47.630;8.262;2023-02-28T01:58:16;17.70;29.10
27823;DHT22;29019;47.630;8.262;2023-02-28T02:02:17;17.70;29.10
27823;DHT22;29019;47.630;8.262;2023-02-28T02:06:18;17.70;29.10
27823;DHT22;29019;47.630;8.262;2023-02-28T02:10:21;17.60;29.10
27823;DHT22;29019;47.630;8.262;2023-02-28T02:18:43;17.60;29.20
27823;DHT22;29019;47.630;8.262;2023-02-28T02:26:58;17.60;29.20
27823;DHT22;29019;47.630;8.262;2023-02-28T02:39:16;17.50;29.10
27823;DHT22;29019;47.630;8.262;2023-02-28T02:43:33;17.50;29.10
27823;DHT22;29019;47.630;8.262;2023-02-28T02:47:35;17.50;29.20
27823;DHT22;29019;47.630;8.262;2023-02-28T02:51:36;17.50;29.20
27823;DHT22;29019;47.630;8.262;2023-02-28T02:55:40;17.40;29.10
27823;DHT22;29019;47.630;8.262;2023-02-28T02:59:41;17.40;29.10
27823;DHT22;29019;47.630;8.262;2023-02-28T03:03:42;17.40;29.10
27823;DHT22;29019;47.630;8.262;2023-02-28T03:07:43;17.40;29.10
27823;DHT22;29019;47.630;8.262;2023-02-28T03:11:43;17.40;29.10
27823;DHT22;29019;47.630;8.262;2023-02-28T03:15:50;17.40;29.20
27823;DHT22;29019;47.630;8.262;2023-02-28T03:19:58;17.30;29.10
27823;DHT22;29019;47.630;8.262;2023-02-28T03:24:10;17.30;29.10
27823;DHT22;29019;47.630;8.262;2023-02-28T03:28:15;17.30;29.10
27823;DHT22;29019;47.630;8.262;2023-02-28T03:32:24;17.30;29.10
27823;DHT22;29019;47.630;8.262;2023-02-28T03:36:27;17.30;29.10
27823;DHT22;29019;47.630;8.262;2023-02-28T03:40:30;17.30;29.10
27823;DHT22;29019;47.630;8.262;2023-02-28T03:44:36;17.30;29.20
27823;DHT22;29019;47.630;8.262;2023-02-28T03:48:44;17.20;29.10
27823;DHT22;29019;47.630;8.262;2023-02-28T03:52:49;17.20;29.10
27823;DHT22;29019;47.630;8.262;2023-02-28T03:56:52;17.20;29.10
27823;DHT22;29019;47.630;8.262;2023-02-28T04:00:55;17.20;29.20
27823;DHT22;29019;47.630;8.262;2023-02-28T04:04:57;17.20;29.10
27823;DHT22;29019;47.630;8.262;2023-02-28T04:08:57;17.20;29.20
27823;DHT22;29019;47.630;8.262;2023-02-28T04:12:57;17.20;29.10
27823;DHT22;29019;47.630;8.262;2023-02-28T04:16:58;17.20;29.10
27823;DHT22;29019;47.630;8.262;2023-02-28T04:20:59;17.20;29.10
27823;DHT22;29019;47.630;8.262;2023-02-28T04:25:00;17.20;29.20
27823;DHT22;29019;47.630;8.262;2023-02-28T04:29:01;17.10;29.10
27823;DHT22;29019;47.630;8.262;2023-02-28T04:33:01;17.10;29.10
27823;DHT22;29019;47.630;8.262;2023-02-28T04:37:02;17.20;29.10
27823;DHT22;29019;47.630;8.262;2023-02-28T04:41:03;17.10;29.10
27823;DHT22;29019;47.630;8.262;2023-02-28T04:45:04;17.10;29.10
27823;DHT22;29019;47.630;8.262;2023-02-28T04:49:04;17.10;29.10
27823;DHT22;29019;47.630;8.262;2023-02-28T04:53:05;17.10;29.10
27823;DHT22;29019;47.630;8.262;2023-02-28T04:57:05;17.10;29.10
27823;DHT22;29019;47.630;8.262;2023-02-28T05:01:07;17.10;29.10
27823;DHT22;29019;47.630;8.262;2023-02-28T05:05:15;17.00;29.10
27823;DHT22;29019;47.630;8.262;2023-02-28T05:09:18;17.00;29.10
27823;DHT22;29019;47.630;8.262;2023-02-28T05:13:18;17.10;29.60
27823;DHT22;29019;47.630;8.262;2023-02-28T05:17:20;17.20;29.20
27823;DHT22;29019;47.630;8.262;2023-02-28T05:21:28;17.30;29.10
27823;DHT22;29019;47.630;8.262;2023-02-28T05:25:29;17.40;29.00
27823;DHT22;29019;47.630;8.262;2023-02-28T05:29:29;17.60;29.00
27823;DHT22;29019;47.630;8.262;2023-02-28T05:33:30;17.70;28.90
27823;DHT22;29019;47.630;8.262;2023-02-28T05:37:30;17.80;28.90
27823;DHT22;29019;47.630;8.262;2023-02-28T05:41:31;17.90;28.80
27823;DHT22;29019;47.630;8.262;2023-02-28T05:45:31;18.00;28.80
27823;DHT22;29019;47.630;8.262;2023-02-28T05:49:31;18.00;28.70
27823;DHT22;29019;47.630;8.262;2023-02-28T05:53:32;18.10;28.70
27823;DHT22;29019;47.630;8.262;2023-02-28T05:57:32;18.20;28.80
27823;DHT22;29019;47.630;8.262;2023-02-28T06:01:34;18.20;28.80
27823;DHT22;29019;47.630;8.262;2023-02-28T06:05:35;18.30;28.70
27823;DHT22;29019;47.630;8.262;2023-02-28T06:09:35;18.30;28.70
27823;DHT22;29019;47.630;8.262;2023-02-28T06:13:36;18.40;28.70
27823;DHT22;29019;47.630;8.262;2023-02-28T06:17:36;18.40;28.70
27823;DHT22;29019;47.630;8.262;2023-02-28T06:21:37;18.40;28.70
27823;DHT22;29019;47.630;8.262;2023-02-28T06:25:37;18.50;28.70
27823;DHT22;29019;47.630;8.262;2023-02-28T06:29:38;18.50;28.70
27823;DHT22;29019;47.630;8.262;2023-02-28T06:33:42;18.60;28.70
27823;DHT22;29019;47.630;8.262;2023-02-28T06:37:42;18.60;28.60
27823;DHT22;29019;47.630;8.262;2023-02-28T06:41:44;18.60;28.60
27823;DHT22;29019;47.630;8.262;2023-02-28T06:45:46;18.70;28.60
27823;DHT22;29019;47.630;8.262;2023-02-28T06:49:46;18.70;28.60
27823;DHT22;29019;47.630;8.262;2023-02-28T06:53:46;18.70;28.60
27823;DHT22;29019;47.630;8.262;2023-02-28T06:57:47;18.70;28.60
27823;DHT22;29019;47.630;8.262;2023-02-28T07:01:47;18.80;28.60
27823;DHT22;29019;47.630;8.262;2023-02-28T07:05:48;18.80;28.60
27823;DHT22;29019;47.630;8.262;2023-02-28T07:09:48;18.80;28.60
27823;DHT22;29019;47.630;8.262;2023-02-28T07:13:49;18.90;28.60
27823;DHT22;29019;47.630;8.262;2023-02-28T07:17:51;18.90;28.60
27823;DHT22;29019;47.630;8.262;2023-02-28T07:21:51;18.90;28.50
27823;DHT22;29019;47.630;8.262;2023-02-28T07:25:51;18.90;28.50
27823;DHT22;29019;47.630;8.262;2023-02-28T07:29:52;18.90;28.50
27823;DHT22;29019;47.630;8.262;2023-02-28T07:33:53;19.00;28.50
27823;DHT22;29019;47.630;8.262;2023-02-28T07:37:54;19.00;28.40
27823;DHT22;29019;47.630;8.262;2023-02-28T07:41:54;19.00;28.40
27823;DHT22;29019;47.630;8.262;2023-02-28T07:45:55;19.10;28.50
27823;DHT22;29019;47.630;8.262;2023-02-28T07:49:55;19.10;28.50
27823;DHT22;29019;47.630;8.262;2023-02-28T07:53:56;19.10;28.50
27823;DHT22;29019;47.630;8.262;2023-02-28T07:57:57;19.10;28.50
27823;DHT22;29019;47.630;8.262;2023-02-28T08:01:57;19.10;28.50
27823;DHT22;29019;47.630;8.262;2023-02-28T08:05:58;19.10;28.50
27823;DHT22;29019;47.630;8.262;2023-02-28T08:09:59;19.10;28.50
27823;DHT22;29019;47.630;8.262;2023-02-28T08:13:59;19.10;28.40
27823;DHT22;29019;47.630;8.262;2023-02-28T08:18:00;19.10;28.30
27823;DHT22;29019;47.630;8.262;2023-02-28T08:22:00;19.10;28.30
27823;DHT22;29019;47.630;8.262;2023-02-28T08:26:00;19.10;28.30
27823;DHT22;29019;47.630;8.262;2023-02-28T08:30:01;19.10;28.30
27823;DHT22;29019;47.630;8.262;2023-02-28T08:34:06;19.10;28.30
27823;DHT22;29019;47.630;8.262;2023-02-28T08:38:07;19.00;28.40
27823;DHT22;29019;47.630;8.262;2023-02-28T08:42:07;18.90;28.40
27823;DHT22;29019;47.630;8.262;2023-02-28T08:46:08;18.90;28.40
27823;DHT22;29019;47.630;8.262;2023-02-28T08:50:11;18.90;28.40
27823;DHT22;29019;47.630;8.262;2023-02-28T08:54:13;18.80;28.40
27823;DHT22;29019;47.630;8.262;2023-02-28T08:58:16;18.80;28.40
27823;DHT22;29019;47.630;8.262;2023-02-28T09:02:16;18.70;28.30
27823;DHT22;29019;47.630;8.262;2023-02-28T09:06:17;18.70;28.40
27823;DHT22;29019;47.630;8.262;2023-02-28T09:10:18;18.70;28.40
27823;DHT22;29019;47.630;8.262;2023-02-28T09:14:18;18.70;28.50
27823;DHT22;29019;47.630;8.262;2023-02-28T09:18:20;18.60;28.50
27823;DHT22;29019;47.630;8.262;2023-02-28T09:22:20;18.60;28.50
27823;DHT22;29019;47.630;8.262;2023-02-28T09:26:23;18.60;28.50
27823;DHT22;29019;47.630;8.262;2023-02-28T09:30:23;18.50;28.50
27823;DHT22;29019;47.630;8.262;2023-02-28T09:34:24;18.50;28.50
27823;DHT22;29019;47.630;8.262;2023-02-28T09:38:25;18.40;28.50
27823;DHT22;29019;47.630;8.262;2023-02-28T09:42:29;18.40;28.50
27823;DHT22;29019;47.630;8.262;2023-02-28T09:46:32;18.40;28.50
27823;DHT22;29019;47.630;8.262;2023-02-28T09:50:40;18.40;28.60
27823;DHT22;29019;47.630;8.262;2023-02-28T09:54:42;18.30;28.60
27823;DHT22;29019;47.630;8.262;2023-02-28T09:58:50;18.30;28.60
27823;DHT22;29019;47.630;8.262;2023-02-28T10:07:37;18.30;28.60
27823;DHT22;29019;47.630;8.262;2023-02-28T10:11:40;18.20;28.60
27823;DHT22;29019;47.630;8.262;2023-02-28T10:15:41;18.20;28.60
27823;DHT22;29019;47.630;8.262;2023-02-28T10:23:43;18.10;28.70
27823;DHT22;29019;47.630;8.262;2023-02-28T10:27:45;18.10;28.70
27823;DHT22;29019;47.630;8.262;2023-02-28T10:31:45;18.10;28.70
27823;DHT22;29019;47.630;8.262;2023-02-28T10:35:46;18.10;28.70
27823;DHT22;29019;47.630;8.262;2023-02-28T10:39:46;18.10;28.70
27823;DHT22;29019;47.630;8.262;2023-02-28T10:43:47;18.10;28.80
27823;DHT22;29019;47.630;8.262;2023-02-28T10:51:52;18.00;28.70
27823;DHT22;29019;47.630;8.262;2023-02-28T10:56:01;18.00;28.70
27823;DHT22;29019;47.630;8.262;2023-02-28T11:00:15;18.00;28.70
27823;DHT22;29019;47.630;8.262;2023-02-28T11:04:20;18.00;28.40
27823;DHT22;29019;47.630;8.262;2023-02-28T11:08:32;17.90;28.70
27823;DHT22;29019;47.630;8.262;2023-02-28T11:12:37;18.00;28.80
27823;DHT22;29019;47.630;8.262;2023-02-28T11:16:38;17.90;28.80
27823;DHT22;29019;47.630;8.262;2023-02-28T11:20:38;17.90;28.70
27823;DHT22;29019;47.630;8.262;2023-02-28T11:24:41;17.90;28.80
27823;DHT22;29019;47.630;8.262;2023-02-28T11:28:42;17.90;28.80
27823;DHT22;29019;47.630;8.262;2023-02-28T11:32:48;17.90;28.80
27823;DHT22;29019;47.630;8.262;2023-02-28T11:36:48;17.80;28.80
27823;DHT22;29019;47.630;8.262;2023-02-28T11:45:02;17.90;28.80
27823;DHT22;29019;47.630;8.262;2023-02-28T12:02:26;17.80;28.80
27823;DHT22;29019;47.630;8.262;2023-02-28T12:06:31;17.80;28.80
27823;DHT22;29019;47.630;8.262;2023-02-28T12:10:38;17.80;28.80
27823;DHT22;29019;47.630;8.262;2023-02-28T12:14:46;17.80;29.20
27823;DHT22;29019;47.630;8.262;2023-02-28T12:27:13;17.70;28.80
27823;DHT22;29019;47.630;8.262;2023-02-28T12:31:20;17.70;28.80
27823;DHT22;29019;47.630;8.262;2023-02-28T12:35:25;17.80;28.80
27823;DHT22;29019;47.630;8.262;2023-02-28T12:39:28;17.70;28.80
27823;DHT22;29019;47.630;8.262;2023-02-28T12:43:33;17.70;28.80
27823;DHT22;29019;47.630;8.262;2023-02-28T12:47:35;17.70;28.80
27823;DHT22;29019;47.630;8.262;2023-02-28T12:51:36;17.70;28.80
27823;DHT22;29019;47.630;8.262;2023-02-28T12:55:45;17.70;28.80
27823;DHT22;29019;47.630;8.262;2023-02-28T12:59:50;17.70;28.80
27823;DHT22;29019;47.630;8.262;2023-02-28T13:12:12;17.70;28.80
27823;DHT22;29019;47.630;8.262;2023-02-28T13:16:13;17.70;28.80
27823;DHT22;29019;47.630;8.262;2023-02-28T13:20:20;17.60;28.80
27823;DHT22;29019;47.630;8.262;2023-02-28T13:24:42;17.60;28.80
27823;DHT22;29019;47.630;8.262;2023-02-28T13:33:02;17.60;28.80
27823;DHT22;29019;47.630;8.262;2023-02-28T13:45:29;17.60;28.80
27823;DHT22;29019;47.630;8.262;2023-02-28T13:49:30;17.60;28.80
27823;DHT22;29019;47.630;8.262;2023-02-28T13:53:56;17.60;28.80
27823;DHT22;29019;47.630;8.262;2023-02-28T14:02:28;17.60;28.90
27823;DHT22;29019;47.630;8.262;2023-02-28T14:06:32;17.60;28.90
27823;DHT22;29019;47.630;8.262;2023-02-28T14:10:39;17.60;28.90
27823;DHT22;29019;47.630;8.262;2023-02-28T14:18:42;17.50;28.80
27823;DHT22;29019;47.630;8.262;2023-02-28T14:23:01;17.50;28.90
27823;DHT22;29019;47.630;8.262;2023-02-28T14:27:11;17.50;28.90
27823;DHT22;29019;47.630;8.262;2023-02-28T14:31:25;17.50;28.90
27823;DHT22;29019;47.630;8.262;2023-02-28T14:35:39;17.50;28.80
27823;DHT22;29019;47.630;8.262;2023-02-28T14:39:43;17.50;28.80
27823;DHT22;29019;47.630;8.262;2023-02-28T14:43:48;17.50;28.90
27823;DHT22;29019;47.630;8.262;2023-02-28T14:47:49;17.50;28.90
27823;DHT22;29019;47.630;8.262;2023-02-28T14:52:00;17.50;28.90
27823;DHT22;29019;47.630;8.262;2023-02-28T14:56:01;17.50;28.90
27823;DHT22;29019;47.630;8.262;2023-02-28T15:00:24;17.50;28.90
27823;DHT22;29019;47.630;8.262;2023-02-28T15:04:26;17.40;28.90
27823;DHT22;29019;47.630;8.262;2023-02-28T15:08:27;17.50;28.90
27823;DHT22;29019;47.630;8.262;2023-02-28T15:12:29;17.40;28.90
27823;DHT22;29019;47.630;8.262;2023-02-28T15:16:34;17.40;28.90
27823;DHT22;29019;47.630;8.262;2023-02-28T15:20:35;17.40;29.30
27823;DHT22;29019;47.630;8.262;2023-02-28T15:24:40;17.40;28.80
27823;DHT22;29019;47.630;8.262;2023-02-28T15:28:43;17.40;28.90
27823;DHT22;29019;47.630;8.262;2023-02-28T15:32:43;17.40;28.90
27823;DHT22;29019;47.630;8.262;2023-02-28T15:36:44;17.40;28.90
27823;DHT22;29019;47.630;8.262;2023-02-28T15:40:45;17.40;28.90
27823;DHT22;29019;47.630;8.262;2023-02-28T15:44:53;17.40;28.90
27823;DHT22;29019;47.630;8.262;2023-02-28T15:48:54;17.40;28.90
27823;DHT22;29019;47.630;8.262;2023-02-28T15:52:55;17.40;28.90
27823;DHT22;29019;47.630;8.262;2023-02-28T15:57:03;17.40;29.00
27823;DHT22;29019;47.630;8.262;2023-02-28T16:01:05;17.40;28.90
27823;DHT22;29019;47.630;8.262;2023-02-28T16:09:11;17.40;28.90
27823;DHT22;29019;47.630;8.262;2023-02-28T16:13:12;17.40;28.90
27823;DHT22;29019;47.630;8.262;2023-02-28T16:17:25;17.50;28.90
27823;DHT22;29019;47.630;8.262;2023-02-28T16:21:26;17.60;28.90
27823;DHT22;29019;47.630;8.262;2023-02-28T16:25:29;17.70;28.80
27823;DHT22;29019;47.630;8.262;2023-02-28T16:29:36;17.90;28.80
27823;DHT22;29019;47.630;8.262;2023-02-28T16:33:37;18.00;28.80
27823;DHT22;29019;47.630;8.262;2023-02-28T16:37:37;18.00;28.70
27823;DHT22;29019;47.630;8.262;2023-02-28T16:41:37;18.10;28.70
27823;DHT22;29019;47.630;8.262;2023-02-28T16:45:42;18.20;28.70
27823;DHT22;29019;47.630;8.262;2023-02-28T16:49:42;18.20;28.60
27823;DHT22;29019;47.630;8.262;2023-02-28T16:53:43;18.40;28.60
27823;DHT22;29019;47.630;8.262;2023-02-28T16:57:44;18.40;28.60
27823;DHT22;29019;47.630;8.262;2023-02-28T17:01:47;18.50;28.60
27823;DHT22;29019;47.630;8.262;2023-02-28T17:05:49;18.50;28.60
27823;DHT22;29019;47.630;8.262;2023-02-28T17:09:49;18.60;29.00
27823;DHT22;29019;47.630;8.262;2023-02-28T17:13:50;18.60;28.50
27823;DHT22;29019;47.630;8.262;2023-02-28T17:17:50;18.60;28.50
27823;DHT22;29019;47.630;8.262;2023-02-28T17:21:51;18.70;28.60
27823;DHT22;29019;47.630;8.262;2023-02-28T17:25:51;18.70;28.50
27823;DHT22;29019;47.630;8.262;2023-02-28T17:29:55;18.80;28.50
27823;DHT22;29019;47.630;8.262;2023-02-28T17:33:55;18.80;28.50
27823;DHT22;29019;47.630;8.262;2023-02-28T17:37:56;18.80;28.40
27823;DHT22;29019;47.630;8.262;2023-02-28T17:41:56;18.90;28.50
27823;DHT22;29019;47.630;8.262;2023-02-28T17:45:57;18.90;28.50
27823;DHT22;29019;47.630;8.262;2023-02-28T17:49:58;18.90;28.50
27823;DHT22;29019;47.630;8.262;2023-02-28T17:53:58;18.90;28.90
27823;DHT22;29019;47.630;8.262;2023-02-28T17:58:00;18.90;28.40
27823;DHT22;29019;47.630;8.262;2023-02-28T18:02:00;19.00;28.50
27823;DHT22;29019;47.630;8.262;2023-02-28T18:06:01;19.00;28.50
27823;DHT22;29019;47.630;8.262;2023-02-28T18:10:02;19.00;28.50
27823;DHT22;29019;47.630;8.262;2023-02-28T18:14:03;19.10;28.50
27823;DHT22;29019;47.630;8.262;2023-02-28T18:18:03;19.10;28.40
27823;DHT22;29019;47.630;8.262;2023-02-28T18:22:05;19.10;28.40
27823;DHT22;29019;47.630;8.262;2023-02-28T18:26:07;19.10;28.40
27823;DHT22;29019;47.630;8.262;2023-02-28T18:30:08;19.20;28.40
27823;DHT22;29019;47.630;8.262;2023-02-28T18:34:09;19.20;28.40
27823;DHT22;29019;47.630;8.262;2023-02-28T18:38:13;19.20;28.40
27823;DHT22;29019;47.630;8.262;2023-02-28T18:42:14;19.30;28.40
27823;DHT22;29019;47.630;8.262;2023-02-28T18:46:15;19.30;28.40
27823;DHT22;29019;47.630;8.262;2023-02-28T18:50:16;19.30;28.50
27823;DHT22;29019;47.630;8.262;2023-02-28T18:54:17;19.30;28.40
27823;DHT22;29019;47.630;8.262;2023-02-28T18:58:17;19.30;28.40
27823;DHT22;29019;47.630;8.262;2023-02-28T19:02:18;19.30;28.40
27823;DHT22;29019;47.630;8.262;2023-02-28T19:06:18;19.30;28.30
27823;DHT22;29019;47.630;8.262;2023-02-28T19:10:19;19.30;28.30
27823;DHT22;29019;47.630;8.262;2023-02-28T19:14:19;19.30;28.30
27823;DHT22;29019;47.630;8.262;2023-02-28T19:18:21;19.30;28.30
27823;DHT22;29019;47.630;8.262;2023-02-28T19:22:21;19.40;28.30
27823;DHT22;29019;47.630;8.262;2023-02-28T19:26:23;19.40;28.30
27823;DHT22;29019;47.630;8.262;2023-02-28T19:30:24;19.40;28.30
27823;DHT22;29019;47.630;8.262;2023-02-28T19:34:25;19.40;28.30
27823;DHT22;29019;47.630;8.262;2023-02-28T19:38:25;19.40;28.40
27823;DHT22;29019;47.630;8.262;2023-02-28T19:42:26;19.40;28.30
27823;DHT22;29019;47.630;8.262;2023-02-28T19:46:32;19.40;28.30
27823;DHT22;29019;47.630;8.262;2023-02-28T19:50:32;19.40;28.30
27823;DHT22;29019;47.630;8.262;2023-02-28T19:54:33;19.40;28.20
27823;DHT22;29019;47.630;8.262;2023-02-28T19:58:34;19.50;28.30
27823;DHT22;29019;47.630;8.262;2023-02-28T20:02:35;19.50;28.20
27823;DHT22;29019;47.630;8.262;2023-02-28T20:06:36;19.40;28.30
27823;DHT22;29019;47.630;8.262;2023-02-28T20:10:37;19.50;28.30
27823;DHT22;29019;47.630;8.262;2023-02-28T20:14:38;19.50;28.20
27823;DHT22;29019;47.630;8.262;2023-02-28T20:18:38;19.50;28.30
27823;DHT22;29019;47.630;8.262;2023-02-28T20:22:39;19.50;28.20
27823;DHT22;29019;47.630;8.262;2023-02-28T20:26:39;19.50;28.20
27823;DHT22;29019;47.630;8.262;2023-02-28T20:30:40;19.50;28.20
27823;DHT22;29019;47.630;8.262;2023-02-28T20:34:41;19.50;28.20
27823;DHT22;29019;47.630;8.262;2023-02-28T20:38:42;19.50;28.20
27823;DHT22;29019;47.630;8.262;2023-02-28T20:42:42;19.50;28.20
27823;DHT22;29019;47.630;8.262;2023-02-28T20:46:42;19.50;28.10
27823;DHT22;29019;47.630;8.262;2023-02-28T20:50:53;19.50;28.10
27823;DHT22;29019;47.630;8.262;2023-02-28T20:54:53;19.60;28.20
27823;DHT22;29019;47.630;8.262;2023-02-28T20:58:54;19.50;28.20
27823;DHT22;29019;47.630;8.262;2023-02-28T21:02:55;19.50;28.30
27823;DHT22;29019;47.630;8.262;2023-02-28T21:06:55;19.60;28.20
27823;DHT22;29019;47.630;8.262;2023-02-28T21:10:56;19.50;28.20
27823;DHT22;29019;47.630;8.262;2023-02-28T21:14:56;19.60;28.20
27823;DHT22;29019;47.630;8.262;2023-02-28T21:18:57;19.60;28.20
27823;DHT22;29019;47.630;8.262;2023-02-28T21:23:03;19.60;28.20
27823;DHT22;29019;47.630;8.262;2023-02-28T21:27:03;19.60;28.10
27823;DHT22;29019;47.630;8.262;2023-02-28T21:31:05;19.60;28.10
27823;DHT22;29019;47.630;8.262;2023-02-28T21:35:05;19.60;28.10
27823;DHT22;29019;47.630;8.262;2023-02-28T21:39:08;19.50;28.00
27823;DHT22;29019;47.630;8.262;2023-02-28T21:43:08;19.50;28.00
27823;DHT22;29019;47.630;8.262;2023-02-28T21:47:09;19.50;28.00
27823;DHT22;29019;47.630;8.262;2023-02-28T21:51:12;19.40;28.00
27823;DHT22;29019;47.630;8.262;2023-02-28T21:55:13;19.40;28.10
27823;DHT22;29019;47.630;8.262;2023-02-28T21:59:14;19.30;28.10
27823;DHT22;29019;47.630;8.262;2023-02-28T22:03:14;19.30;28.20
27823;DHT22;29019;47.630;8.262;2023-02-28T22:07:14;19.30;28.10
27823;DHT22;29019;47.630;8.262;2023-02-28T22:11:17;19.30;28.10
27823;DHT22;29019;47.630;8.262;2023-02-28T22:15:17;19.30;28.10
27823;DHT22;29019;47.630;8.262;2023-02-28T22:19:18;19.30;28.10
27823;DHT22;29019;47.630;8.262;2023-02-28T22:23:19;19.20;28.10
27823;DHT22;29019;47.630;8.262;2023-02-28T22:27:19;19.20;28.10
27823;DHT22;29019;47.630;8.262;2023-02-28T22:31:21;19.10;28.10
27823;DHT22;29019;47.630;8.262;2023-02-28T22:35:22;19.10;28.20
27823;DHT22;29019;47.630;8.262;2023-02-28T22:39:23;19.10;28.20
27823;DHT22;29019;47.630;8.262;2023-02-28T22:43:23;19.00;28.20
27823;DHT22;29019;47.630;8.262;2023-02-28T22:47:25;19.00;28.30
27823;DHT22;29019;47.630;8.262;2023-02-28T22:51:26;18.90;28.30
27823;DHT22;29019;47.630;8.262;2023-02-28T22:55:26;18.90;28.40
27823;DHT22;29019;47.630;8.262;2023-02-28T22:59:27;18.90;28.40
27823;DHT22;29019;47.630;8.262;2023-02-28T23:03:27;18.80;28.40
27823;DHT22;29019;47.630;8.262;2023-02-28T23:07:28;18.80;28.50
27823;DHT22;29019;47.630;8.262;2023-02-28T23:11:32;18.70;28.50
27823;DHT22;29019;47.630;8.262;2023-02-28T23:15:33;18.70;28.50
27823;DHT22;29019;47.630;8.262;2023-02-28T23:19:33;18.60;28.50
27823;DHT22;29019;47.630;8.262;2023-02-28T23:23:34;18.60;28.50
27823;DHT22;29019;47.630;8.262;2023-02-28T23:27:34;18.60;28.60
27823;DHT22;29019;47.630;8.262;2023-02-28T23:31:35;18.60;28.60
27823;DHT22;29019;47.630;8.262;2023-02-28T23:35:35;18.60;28.70
27823;DHT22;29019;47.630;8.262;2023-02-28T23:39:36;18.50;28.70
27823;DHT22;29019;47.630;8.262;2023-02-28T23:43:36;18.50;28.70
27823;DHT22;29019;47.630;8.262;2023-02-28T23:47:37;18.40;28.70
27823;DHT22;29019;47.630;8.262;2023-02-28T23:51:37;18.40;28.70
27823;DHT22;29019;47.630;8.262;2023-02-28T23:55:44;18.30;28.70
27823;DHT22;29019;47.630;8.262;2023-02-28T23:59:44;18.30;28.80
